createdAt,value
2023-05-06T00:00:06.376Z,13.1
2023-05-06T00:01:06.704Z,13.1
2023-05-06T00:02:06.763Z,13
2023-05-06T00:03:06.460Z,13.1
2023-05-06T00:04:07.081Z,13.1
2023-05-06T00:07:06.333Z,13
2023-05-06T00:08:06.545Z,13
2023-05-06T00:09:07.025Z,13
2023-05-06T00:10:06.286Z,13
2023-05-06T00:11:06.297Z,13
2023-05-06T00:12:06.618Z,13
2023-05-06T00:13:07.029Z,13
2023-05-06T00:15:06.230Z,13
2023-05-06T00:16:06.468Z,12
2023-05-06T00:17:06.649Z,12
2023-05-06T00:18:06.980Z,13
2023-05-06T00:19:06.020Z,12
2023-05-06T00:20:06.296Z,12
2023-05-06T00:21:06.471Z,13
2023-05-06T00:22:06.954Z,12.9
2023-05-06T00:23:06.145Z,12.9
2023-05-06T00:24:06.549Z,12.9
2023-05-06T00:25:06.797Z,12.9
2023-05-06T00:26:06.162Z,12.9
2023-05-06T00:27:06.269Z,12.9
2023-05-06T00:28:06.445Z,12.9
2023-05-06T00:29:06.703Z,12.9
2023-05-06T00:30:06.206Z,12.9
2023-05-06T00:31:06.445Z,12.9
2023-05-06T00:32:06.684Z,12.9
2023-05-06T00:33:06.880Z,12.9
2023-05-06T00:34:07.083Z,12.9
2023-05-06T00:35:06.304Z,12
2023-05-06T00:36:06.540Z,12.9
2023-05-06T00:37:06.815Z,12.9
2023-05-06T00:38:05.815Z,12.9
2023-05-06T00:39:06.372Z,12.9
2023-05-06T00:40:06.723Z,12.9
2023-05-06T00:41:06.667Z,12.9
2023-05-06T00:42:06.106Z,12.9
2023-05-06T00:43:06.516Z,12.9
2023-05-06T00:44:06.747Z,12.8
2023-05-06T00:45:07.254Z,12.8
2023-05-06T00:49:06.120Z,12.8
2023-05-06T00:50:06.429Z,12.8
2023-05-06T00:51:06.619Z,12.8
2023-05-06T00:52:06.833Z,12.8
2023-05-06T00:53:06.051Z,12.8
2023-05-06T00:54:06.403Z,12.8
2023-05-06T00:55:07.018Z,12.8
2023-05-06T00:56:06.335Z,12.8
2023-05-06T00:57:06.673Z,12.7
2023-05-06T00:58:06.914Z,12.7
2023-05-06T00:59:06.019Z,12.7
2023-05-06T01:00:06.304Z,12.7
2023-05-06T01:01:06.802Z,12.7
2023-05-06T01:03:06.258Z,12.7
2023-05-06T01:04:06.536Z,12.7
2023-05-06T01:05:06.579Z,12.7
2023-05-06T01:07:06.779Z,12.7
2023-05-06T01:08:05.864Z,12.7
2023-05-06T01:09:06.329Z,12.7
2023-05-06T01:10:06.670Z,12.7
2023-05-06T01:11:06.886Z,12.7
2023-05-06T01:12:06.155Z,12.7
2023-05-06T01:13:06.704Z,12
2023-05-06T01:14:06.797Z,12.7
2023-05-06T01:15:06.208Z,12.7
2023-05-06T01:16:06.156Z,12.7
2023-05-06T01:17:06.715Z,12.7
2023-05-06T01:18:06.892Z,12.7
2023-05-06T01:19:06.677Z,12.7
2023-05-06T01:21:06.580Z,12.7
2023-05-06T01:22:06.745Z,12.7
2023-05-06T01:23:07.005Z,12.6
2023-05-06T01:24:06.040Z,12.6
2023-05-06T01:25:06.674Z,12.6
2023-05-06T01:26:06.510Z,12.6
2023-05-06T01:27:06.927Z,12.6
2023-05-06T01:28:06.145Z,12.6
2023-05-06T01:29:06.400Z,12.6
2023-05-06T01:30:06.741Z,12.6
2023-05-06T01:32:05.867Z,12.5
2023-05-06T01:33:06.124Z,12.6
2023-05-06T01:34:06.263Z,12.6
2023-05-06T01:35:06.647Z,12.5
2023-05-06T01:36:06.550Z,12.5
2023-05-06T01:37:06.916Z,12
2023-05-06T01:38:06.256Z,12.5
2023-05-06T01:39:06.473Z,12.5
2023-05-06T01:40:06.673Z,12.5
2023-05-06T01:41:06.633Z,12.5
2023-05-06T01:42:07.052Z,12.5
2023-05-06T01:43:06.328Z,12.5
2023-05-06T01:44:06.421Z,12.5
2023-05-06T01:45:07.230Z,12.4
2023-05-06T01:46:06.463Z,12.4
2023-05-06T01:47:06.603Z,12.4
2023-05-06T01:48:06.265Z,12.4
2023-05-06T01:49:06.569Z,12.4
2023-05-06T01:50:06.521Z,12.4
2023-05-06T01:51:06.773Z,12.4
2023-05-06T01:52:06.075Z,12.4
2023-05-06T01:53:06.415Z,12.4
2023-05-06T01:54:06.590Z,12.4
2023-05-06T01:55:06.870Z,12.4
2023-05-06T01:59:05.928Z,12.4
2023-05-06T02:00:06.247Z,12.3
2023-05-06T02:01:06.699Z,12.3
2023-05-06T02:02:07.019Z,12.3
2023-05-06T02:03:05.983Z,12.3
2023-05-06T02:04:06.619Z,12.3
2023-05-06T02:07:06.892Z,12.3
2023-05-06T02:08:06.174Z,12.3
2023-05-06T02:09:06.117Z,12.3
2023-05-06T02:10:06.414Z,12.2
2023-05-06T02:11:06.651Z,12.2
2023-05-06T02:12:06.995Z,12.3
2023-05-06T02:15:06.766Z,12.3
2023-05-06T02:16:06.162Z,12.2
2023-05-06T02:17:06.347Z,12
2023-05-06T02:18:06.546Z,12.2
2023-05-06T02:19:07.008Z,12.2
2023-05-06T02:20:06.215Z,12.3
2023-05-06T02:21:06.473Z,12.2
2023-05-06T02:22:06.774Z,12.3
2023-05-06T02:23:05.885Z,12.3
2023-05-06T02:24:06.137Z,12.2
2023-05-06T02:25:06.536Z,12.2
2023-05-06T02:26:06.610Z,12.2
2023-05-06T02:27:07.112Z,12.2
2023-05-06T02:28:06.267Z,12.2
2023-05-06T02:29:06.530Z,12.2
2023-05-06T02:30:06.764Z,12.2
2023-05-06T02:31:06.064Z,12.2
2023-05-06T02:32:06.259Z,12.2
2023-05-06T02:33:06.806Z,12.2
2023-05-06T02:36:06.192Z,12.2
2023-05-06T02:37:06.526Z,12.2
2023-05-06T02:38:06.762Z,12.2
2023-05-06T02:39:06.923Z,12.2
2023-05-06T02:40:06.289Z,12.2
2023-05-06T02:41:06.382Z,12.1
2023-05-06T02:42:06.579Z,12.1
2023-05-06T02:43:06.952Z,12.1
2023-05-06T02:44:06.185Z,12
2023-05-06T02:45:06.244Z,12.1
2023-05-06T02:46:06.709Z,12.1
2023-05-06T02:47:06.885Z,12
2023-05-06T02:48:06.364Z,12.1
2023-05-06T02:50:06.607Z,12.1
2023-05-06T02:51:06.752Z,12.1
2023-05-06T02:52:06.242Z,12.1
2023-05-06T02:53:06.360Z,12.1
2023-05-06T02:54:06.710Z,12.1
2023-05-06T02:55:06.182Z,12.1
2023-05-06T02:56:06.262Z,12.1
2023-05-06T02:57:06.554Z,12.1
2023-05-06T02:58:06.692Z,12.1
2023-05-06T02:59:06.265Z,12.1
2023-05-06T03:00:06.267Z,12.1
2023-05-06T03:01:06.052Z,12.1
2023-05-06T03:02:06.395Z,12.1
2023-05-06T03:03:06.906Z,12.1
2023-05-06T03:04:07.083Z,12.1
2023-05-06T03:05:06.084Z,12.1
2023-05-06T03:07:06.789Z,12.1
2023-05-06T03:08:05.964Z,12.1
2023-05-06T03:09:06.440Z,12
2023-05-06T03:10:06.652Z,12
2023-05-06T03:11:07.364Z,12.1
2023-05-06T03:12:06.157Z,12.1
2023-05-06T03:13:06.652Z,12.1
2023-05-06T03:14:06.530Z,12.1
2023-05-06T03:15:06.874Z,12.1
2023-05-06T03:16:06.224Z,12.1
2023-05-06T03:17:06.454Z,12.1
2023-05-06T03:18:06.909Z,12.1
2023-05-06T03:20:06.333Z,12.2
2023-05-06T03:21:06.824Z,12.2
2023-05-06T03:22:06.485Z,12.2
2023-05-06T03:23:06.977Z,12.2
2023-05-06T03:24:06.020Z,12.1
2023-05-06T03:25:06.461Z,12.1
2023-05-06T03:26:06.724Z,12.1
2023-05-06T03:27:06.096Z,12.1
2023-05-06T03:28:06.421Z,12.1
2023-05-06T03:29:06.685Z,12.1
2023-05-06T03:30:06.900Z,12.1
2023-05-06T03:31:06.126Z,12.1
2023-05-06T03:32:06.478Z,12.1
2023-05-06T03:33:06.706Z,12.1
2023-05-06T03:34:06.979Z,12.1
2023-05-06T03:35:05.811Z,12.2
2023-05-06T03:36:06.370Z,12
2023-05-06T03:37:06.738Z,12.1
2023-05-06T03:38:07.049Z,12.1
2023-05-06T03:39:06.166Z,12.2
2023-05-06T03:40:06.431Z,12.1
2023-05-06T03:41:06.386Z,12.1
2023-05-06T03:42:09.511Z,12.2
2023-05-06T03:44:06.386Z,12.2
2023-05-06T03:45:06.883Z,12.2
2023-05-06T03:46:06.030Z,12.2
2023-05-06T03:47:06.259Z,12.2
2023-05-06T03:48:06.777Z,12.2
2023-05-06T03:49:06.568Z,12.2
2023-05-06T03:50:07.090Z,12.2
2023-05-06T03:54:05.873Z,12.2
2023-05-06T03:55:06.208Z,12.2
2023-05-06T03:56:06.702Z,12.2
2023-05-06T03:57:06.019Z,12.2
2023-05-06T03:58:06.265Z,12.2
2023-05-06T03:59:06.822Z,12.2
2023-05-06T04:00:06.175Z,12.2
2023-05-06T04:01:06.436Z,12.2
2023-05-06T04:02:06.682Z,12
2023-05-06T04:03:06.362Z,12.2
2023-05-06T04:04:06.629Z,12.2
2023-05-06T04:05:06.755Z,12.2
2023-05-06T04:07:06.116Z,12.2
2023-05-06T04:08:06.488Z,12.2
2023-05-06T04:09:06.593Z,12.2
2023-05-06T04:10:05.590Z,12.2
2023-05-06T04:11:06.735Z,12.2
2023-05-06T04:12:06.862Z,12.2
2023-05-06T04:13:06.320Z,12.2
2023-05-06T04:15:06.755Z,12
2023-05-06T04:16:06.389Z,12.2
2023-05-06T04:17:06.450Z,12.2
2023-05-06T04:18:06.912Z,12.3
2023-05-06T04:19:08.584Z,12.3
2023-05-06T04:21:06.571Z,12.3
2023-05-06T04:22:06.877Z,12.3
2023-05-06T04:23:06.072Z,12.3
2023-05-06T04:24:06.496Z,12.3
2023-05-06T04:25:06.652Z,12.3
2023-05-06T04:26:05.921Z,12.3
2023-05-06T04:27:07.071Z,12.3
2023-05-06T04:28:05.932Z,12.3
2023-05-06T04:29:06.216Z,12.3
2023-05-06T04:30:06.693Z,12.3
2023-05-06T04:31:06.492Z,12.3
2023-05-06T04:32:07.047Z,12.3
2023-05-06T04:34:06.185Z,12.4
2023-05-06T04:35:06.592Z,12.4
2023-05-06T04:36:06.672Z,12.4
2023-05-06T04:37:06.873Z,12.4
2023-05-06T04:38:06.994Z,12.4
2023-05-06T04:39:06.194Z,12.4
2023-05-06T04:40:06.356Z,12.4
2023-05-06T04:41:06.345Z,12.4
2023-05-06T04:42:06.573Z,12.4
2023-05-06T04:43:06.925Z,12.4
2023-05-06T04:48:05.717Z,12.5
2023-05-06T04:49:05.891Z,12.5
2023-05-06T04:50:06.214Z,12.5
2023-05-06T04:51:06.078Z,12.6
2023-05-06T04:52:06.409Z,12.6
2023-05-06T04:53:06.504Z,12.6
2023-05-06T04:54:06.913Z,12.6
2023-05-06T04:55:06.228Z,12.6
2023-05-06T04:56:06.131Z,12.6
2023-05-06T04:57:06.625Z,12.6
2023-05-06T04:58:06.760Z,12.6
2023-05-06T05:02:06.966Z,12.6
2023-05-06T05:03:06.641Z,12.7
2023-05-06T05:04:06.542Z,12
2023-05-06T05:05:06.861Z,12
2023-05-06T05:06:06.151Z,12
2023-05-06T05:07:06.350Z,12.8
2023-05-06T05:08:06.519Z,12.8
2023-05-06T05:09:06.713Z,12.8
2023-05-06T05:10:06.250Z,12.8
2023-05-06T05:11:06.414Z,12.9
2023-05-06T05:12:06.740Z,12.8
2023-05-06T05:13:06.953Z,12.9
2023-05-06T05:14:05.940Z,12.9
2023-05-06T05:15:06.514Z,12.9
2023-05-06T05:16:06.438Z,12.9
2023-05-06T05:17:06.772Z,12.9
2023-05-06T05:18:07.031Z,12.9
2023-05-06T05:19:09.012Z,12.9
2023-05-06T05:21:06.156Z,13
2023-05-06T05:22:06.529Z,13
2023-05-06T05:23:06.831Z,13
2023-05-06T05:24:06.177Z,13
2023-05-06T05:25:09.855Z,13
2023-05-06T05:27:06.955Z,13
2023-05-06T05:28:05.876Z,13
2023-05-06T05:29:06.473Z,13.1
2023-05-06T05:30:06.627Z,13.1
2023-05-06T05:31:07.908Z,13
2023-05-06T05:32:06.128Z,13.1
2023-05-06T05:33:06.530Z,13
2023-05-06T05:34:06.271Z,13.1
2023-05-06T05:35:06.853Z,13
2023-05-06T05:36:06.121Z,13.1
2023-05-06T05:37:06.226Z,13.1
2023-05-06T05:38:06.409Z,13.1
2023-05-06T05:39:06.493Z,13.1
2023-05-06T05:40:06.203Z,13.2
2023-05-06T05:41:06.417Z,13.2
2023-05-06T05:42:06.760Z,13.2
2023-05-06T05:43:05.880Z,13.2
2023-05-06T05:44:06.297Z,13.2
2023-05-06T05:45:06.903Z,13.2
2023-05-06T05:46:06.306Z,13.2
2023-05-06T05:47:06.501Z,13.2
2023-05-06T05:48:07.194Z,13.2
2023-05-06T05:49:05.923Z,13.2
2023-05-06T05:50:06.456Z,13.3
2023-05-06T05:51:06.623Z,13.3
2023-05-06T05:52:06.819Z,13.3
2023-05-06T05:53:06.161Z,13.3
2023-05-06T05:54:06.285Z,13.3
2023-05-06T05:55:06.759Z,13.4
2023-05-06T05:56:06.987Z,13.4
2023-05-06T05:58:06.559Z,13.4
2023-05-06T05:59:06.714Z,13.4
2023-05-06T06:00:07.177Z,13.4
2023-05-06T06:01:06.166Z,13.4
2023-05-06T06:02:06.353Z,13.4
2023-05-06T06:03:06.883Z,13
2023-05-06T06:04:07.858Z,13.5
2023-05-06T06:05:06.075Z,13.5
2023-05-06T06:06:06.349Z,13.4
2023-05-06T06:07:06.682Z,13.5
2023-05-06T06:08:06.285Z,13.5
2023-05-06T06:12:06.753Z,13.6
2023-05-06T06:13:05.929Z,13.7
2023-05-06T06:14:06.059Z,13.7
2023-05-06T06:15:06.758Z,13.8
2023-05-06T06:16:06.616Z,13.8
2023-05-06T06:17:05.980Z,13.8
2023-05-06T06:18:06.504Z,13.8
2023-05-06T06:19:06.513Z,13.9
2023-05-06T06:20:06.783Z,13.9
2023-05-06T06:21:06.626Z,13.9
2023-05-06T06:22:05.952Z,13.9
2023-05-06T06:23:06.286Z,13.9
2023-05-06T06:24:06.307Z,14
2023-05-06T06:25:06.716Z,14
2023-05-06T06:28:06.355Z,14.2
2023-05-06T06:29:06.761Z,13
2023-05-06T06:30:07.018Z,14.1
2023-05-06T06:31:06.255Z,14.2
2023-05-06T06:32:06.678Z,14.2
2023-05-06T06:33:06.842Z,14.2
2023-05-06T06:34:06.898Z,14.2
2023-05-06T06:35:06.271Z,14.2
2023-05-06T06:36:06.372Z,14.2
2023-05-06T06:37:07.976Z,14.2
2023-05-06T06:40:06.300Z,14.4
2023-05-06T06:41:06.380Z,14.4
2023-05-06T06:42:06.656Z,14
2023-05-06T06:43:06.718Z,14.4
2023-05-06T06:44:06.345Z,14.5
2023-05-06T06:45:06.456Z,14.6
2023-05-06T06:46:06.706Z,14.6
2023-05-06T06:47:06.521Z,14.6
2023-05-06T06:48:06.993Z,14.6
2023-05-06T06:49:06.169Z,14.6
2023-05-06T06:50:06.257Z,14.6
2023-05-06T06:51:06.705Z,14.7
2023-05-06T06:52:05.871Z,14.7
2023-05-06T06:53:08.393Z,14.7
2023-05-06T06:55:06.455Z,14.8
2023-05-06T06:56:06.405Z,14.8
2023-05-06T06:57:06.744Z,14.9
2023-05-06T06:58:06.060Z,15
2023-05-06T06:59:06.275Z,14
2023-05-06T07:00:06.500Z,15
2023-05-06T07:01:06.848Z,15
2023-05-06T07:02:06.869Z,15
2023-05-06T07:03:06.351Z,15
2023-05-06T07:04:09.215Z,15
2023-05-06T07:06:06.857Z,15
2023-05-06T07:07:07.092Z,15
2023-05-06T07:08:05.668Z,15.1
2023-05-06T07:09:06.537Z,14
2023-05-06T07:10:06.838Z,15.2
2023-05-06T07:11:06.606Z,15.2
2023-05-06T07:12:06.889Z,15.2
2023-05-06T07:13:07.053Z,15.3
2023-05-06T07:14:06.320Z,15.4
2023-05-06T07:15:06.617Z,15.4
2023-05-06T07:16:06.822Z,15.4
2023-05-06T07:17:06.317Z,15.5
2023-05-06T07:18:06.691Z,15.4
2023-05-06T07:19:06.837Z,15.4
2023-05-06T07:20:06.214Z,15.6
2023-05-06T07:21:06.393Z,15.6
2023-05-06T07:22:06.504Z,15.6
2023-05-06T07:23:06.779Z,15.4
2023-05-06T07:24:06.883Z,15.4
2023-05-06T07:25:06.118Z,15.4
2023-05-06T07:26:06.282Z,15.4
2023-05-06T07:27:06.852Z,15.4
2023-05-06T07:28:06.161Z,15.4
2023-05-06T07:29:06.271Z,15.3
2023-05-06T07:30:06.647Z,15.3
2023-05-06T07:31:06.896Z,15.3
2023-05-06T07:32:06.178Z,15.4
2023-05-06T07:33:06.479Z,15.3
2023-05-06T07:34:06.540Z,15.3
2023-05-06T07:35:06.892Z,15.2
2023-05-06T07:36:06.979Z,15.3
2023-05-06T07:37:06.216Z,15.3
2023-05-06T07:38:06.526Z,15.3
2023-05-06T07:39:06.869Z,15.3
2023-05-06T07:40:06.839Z,15.4
2023-05-06T07:42:06.236Z,15.4
2023-05-06T07:43:06.432Z,15.4
2023-05-06T07:44:06.496Z,15.4
2023-05-06T07:45:06.865Z,15.3
2023-05-06T07:46:06.104Z,15.4
2023-05-06T07:47:06.689Z,15.4
2023-05-06T07:48:06.712Z,15.4
2023-05-06T07:49:06.785Z,15.4
2023-05-06T07:50:06.763Z,15.4
2023-05-06T07:51:06.086Z,15.4
2023-05-06T07:52:06.231Z,15.4
2023-05-06T07:53:06.485Z,15.4
2023-05-06T07:54:06.824Z,15.4
2023-05-06T07:55:06.302Z,15.4
2023-05-06T07:56:06.744Z,15.5
2023-05-06T07:57:06.762Z,15.5
2023-05-06T07:58:06.199Z,15.5
2023-05-06T07:59:06.240Z,15
2023-05-06T08:00:06.911Z,15.6
2023-05-06T08:01:06.546Z,15.6
2023-05-06T08:02:06.559Z,15.7
2023-05-06T08:06:05.934Z,15.8
2023-05-06T08:07:06.350Z,15.9
2023-05-06T08:08:06.510Z,16
2023-05-06T08:09:06.952Z,16.1
2023-05-06T08:10:06.251Z,16.2
2023-05-06T08:11:06.445Z,16.5
2023-05-06T08:12:06.939Z,16.5
2023-05-06T08:13:06.090Z,16.6
2023-05-06T08:14:06.241Z,16.6
2023-05-06T08:15:06.783Z,16.6
2023-05-06T08:16:06.132Z,16.7
2023-05-06T08:17:06.286Z,16.8
2023-05-06T08:18:25.305Z,16.8
2023-05-06T08:20:06.101Z,17
2023-05-06T08:21:06.524Z,17
2023-05-06T08:22:06.485Z,17.1
2023-05-06T08:23:06.866Z,17.2
2023-05-06T08:24:06.042Z,17.3
2023-05-06T08:25:06.596Z,17.5
2023-05-06T08:26:06.743Z,17.5
2023-05-06T08:28:06.044Z,17.7
2023-05-06T08:29:06.505Z,17.7
2023-05-06T08:30:06.791Z,17.7
2023-05-06T08:31:06.223Z,17.7
2023-05-06T08:32:06.556Z,17.8
2023-05-06T08:33:06.791Z,17.8
2023-05-06T08:34:06.882Z,17.8
2023-05-06T08:35:06.290Z,17.8
2023-05-06T08:36:06.319Z,17
2023-05-06T08:37:07.004Z,17
2023-05-06T08:39:06.406Z,17.8
2023-05-06T08:40:06.430Z,17.7
2023-05-06T08:41:06.863Z,17.8
2023-05-06T08:42:06.054Z,17.8
2023-05-06T08:43:06.160Z,17.8
2023-05-06T08:44:06.829Z,17.8
2023-05-06T08:45:07.073Z,17.9
2023-05-06T08:46:06.107Z,18
2023-05-06T08:47:06.318Z,18
2023-05-06T08:48:06.758Z,18.1
2023-05-06T08:49:06.580Z,18.1
2023-05-06T08:50:06.281Z,18.1
2023-05-06T08:55:06.486Z,18.2
2023-05-06T08:56:06.703Z,18.2
2023-05-06T08:57:06.742Z,18.2
2023-05-06T08:58:05.869Z,16
2023-05-06T08:59:06.116Z,18.3
2023-05-06T09:00:06.309Z,18.3
2023-05-06T09:01:06.655Z,18.2
2023-05-06T09:02:06.961Z,18.2
2023-05-06T09:03:07.249Z,18.2
2023-05-06T09:04:06.132Z,18.1
2023-05-06T09:05:07.017Z,18.1
2023-05-06T09:06:06.426Z,18.1
2023-05-06T09:07:06.593Z,18
2023-05-06T09:08:07.020Z,18.1
2023-05-06T09:09:06.030Z,18.1
2023-05-06T09:10:05.573Z,18.1
2023-05-06T09:11:06.569Z,18.2
2023-05-06T09:12:07.057Z,18.2
2023-05-06T09:15:06.697Z,18.3
2023-05-06T09:16:06.292Z,18.3
2023-05-06T09:17:06.719Z,18.3
2023-05-06T09:20:06.917Z,18.3
2023-05-06T09:22:06.683Z,18.3
2023-05-06T09:23:06.906Z,18.3
2023-05-06T09:24:05.821Z,18.5
2023-05-06T09:25:06.349Z,18.5
2023-05-06T09:26:06.453Z,18.7
2023-05-06T09:27:07.884Z,19
2023-05-06T09:28:05.820Z,19
2023-05-06T09:29:06.395Z,19
2023-05-06T09:30:06.732Z,19.2
2023-05-06T09:31:06.896Z,19.3
2023-05-06T09:32:06.874Z,19.5
2023-05-06T09:33:06.264Z,19.5
2023-05-06T09:34:06.393Z,19.5
2023-05-06T09:35:06.656Z,19.6
2023-05-06T09:36:06.752Z,19.8
2023-05-06T09:37:07.051Z,19.9
2023-05-06T09:38:09.093Z,20.1
2023-05-06T09:40:07.034Z,20.3
2023-05-06T09:41:05.982Z,20.4
2023-05-06T09:42:06.176Z,20.4
2023-05-06T09:43:06.544Z,20.6
2023-05-06T09:44:06.818Z,20.7
2023-05-06T09:45:06.161Z,20.8
2023-05-06T09:46:06.639Z,20.8
2023-05-06T09:47:07.004Z,20.9
2023-05-06T09:48:06.856Z,20.9
2023-05-06T09:50:06.993Z,20.9
2023-05-06T09:51:06.674Z,21
2023-05-06T09:52:06.011Z,21
2023-05-06T09:53:06.497Z,21.2
2023-05-06T09:54:06.355Z,21.4
2023-05-06T09:55:06.445Z,21.4
2023-05-06T09:56:06.035Z,21.7
2023-05-06T09:57:06.513Z,21.8
2023-05-06T09:58:06.898Z,21.8
2023-05-06T09:59:06.122Z,21.9
2023-05-06T10:00:06.390Z,21.8
2023-05-06T10:03:07.297Z,21.7
2023-05-06T10:04:06.467Z,21.7
2023-05-06T10:05:07.103Z,21.5
2023-05-06T10:06:06.392Z,21.4
2023-05-06T10:07:06.811Z,21.2
2023-05-06T10:08:06.037Z,21
2023-05-06T10:09:06.506Z,20.8
2023-05-06T10:10:06.689Z,20.7
2023-05-06T10:13:06.140Z,20.7
2023-05-06T10:14:06.531Z,20.7
2023-05-06T10:15:06.374Z,20.7
2023-05-06T10:16:06.741Z,18
2023-05-06T10:17:06.904Z,20.6
2023-05-06T10:18:06.275Z,20.7
2023-05-06T10:19:06.291Z,20.9
2023-05-06T10:20:06.750Z,21.1
2023-05-06T10:21:06.079Z,21.2
2023-05-06T10:22:07.880Z,21.4
2023-05-06T10:25:06.211Z,21.8
2023-05-06T10:26:06.507Z,21.9
2023-05-06T10:27:06.640Z,22
2023-05-06T10:28:08.769Z,22.1
2023-05-06T10:30:06.201Z,22.2
2023-05-06T10:31:06.167Z,22.2
2023-05-06T10:32:06.770Z,22.2
2023-05-06T10:33:06.910Z,22.2
2023-05-06T10:36:06.152Z,22
2023-05-06T10:37:06.455Z,22
2023-05-06T10:38:06.512Z,21.9
2023-05-06T10:39:06.821Z,21.8
2023-05-06T10:40:06.308Z,19
2023-05-06T10:41:06.535Z,21.8
2023-05-06T10:42:06.828Z,21.8
2023-05-06T10:43:05.852Z,21.8
2023-05-06T10:44:06.240Z,21.7
2023-05-06T10:45:06.881Z,21.6
2023-05-06T10:46:06.230Z,21.5
2023-05-06T10:47:06.243Z,21.4
2023-05-06T10:48:06.666Z,21.3
2023-05-06T10:49:07.216Z,21.3
2023-05-06T10:50:05.918Z,21.4
2023-05-06T10:51:06.301Z,21.3
2023-05-06T10:52:06.439Z,21.3
2023-05-06T10:53:06.713Z,21.3
2023-05-06T10:54:06.180Z,21.3
2023-05-06T10:55:06.236Z,21.4
2023-05-06T10:56:06.481Z,21.4
2023-05-06T10:57:06.890Z,21.5
2023-05-06T10:58:05.980Z,21.6
2023-05-06T10:59:06.266Z,21.8
2023-05-06T11:00:06.662Z,21.9
2023-05-06T11:01:06.249Z,22
2023-05-06T11:02:06.497Z,22
2023-05-06T11:03:07.086Z,22
2023-05-06T11:04:06.739Z,22.1
2023-05-06T11:07:06.608Z,22
2023-05-06T11:08:06.763Z,22
2023-05-06T11:09:06.128Z,21.9
2023-05-06T11:10:06.717Z,21.9
2023-05-06T11:11:06.192Z,21.9
2023-05-06T11:12:06.418Z,21.9
2023-05-06T11:13:06.617Z,21.9
2023-05-06T11:14:06.845Z,21.9
2023-05-06T11:15:06.218Z,22
2023-05-06T11:16:06.366Z,22.1
2023-05-06T11:17:06.984Z,22.1
2023-05-06T11:18:06.879Z,22.1
2023-05-06T11:19:06.900Z,22.1
2023-05-06T11:20:06.222Z,22.3
2023-05-06T11:21:06.122Z,22.4
2023-05-06T11:22:06.883Z,22.5
2023-05-06T11:26:06.134Z,22.8
2023-05-06T11:27:06.471Z,22.9
2023-05-06T11:28:06.782Z,23
2023-05-06T11:29:06.922Z,23.1
2023-05-06T11:30:06.274Z,23.1
2023-05-06T11:31:06.620Z,23.3
2023-05-06T11:33:09.594Z,23.4
2023-05-06T11:38:06.156Z,23.5
2023-05-06T11:39:08.978Z,23.5
2023-05-06T11:42:06.036Z,23
2023-05-06T11:43:06.448Z,22.9
2023-05-06T11:44:06.588Z,22.8
2023-05-06T11:45:06.806Z,22.7
2023-05-06T11:46:06.189Z,22.6
2023-05-06T11:47:06.345Z,22.5
2023-05-06T11:48:06.848Z,22.4
2023-05-06T11:49:06.915Z,22.3
2023-05-06T11:50:06.049Z,19
2023-05-06T11:51:06.252Z,22.2
2023-05-06T11:52:06.840Z,22
2023-05-06T11:53:06.913Z,21.9
2023-05-06T11:54:06.114Z,21.8
2023-05-06T11:55:06.260Z,21.8
2023-05-06T11:56:06.449Z,21.7
2023-05-06T11:57:06.585Z,19
2023-05-06T11:58:06.199Z,21.4
2023-05-06T12:00:06.654Z,21.2
2023-05-06T12:01:06.016Z,21.3
2023-05-06T12:02:06.311Z,18
2023-05-06T12:03:06.967Z,21.4
2023-05-06T12:04:08.251Z,21.4
2023-05-06T12:05:06.523Z,21.5
2023-05-06T12:06:06.828Z,21.5
2023-05-06T12:07:06.763Z,21.5
2023-05-06T12:08:10.719Z,21.6
2023-05-06T12:09:06.964Z,21.6
2023-05-06T12:10:06.127Z,21.7
2023-05-06T12:11:06.329Z,21.8
2023-05-06T12:12:06.620Z,21.9
2023-05-06T12:13:06.182Z,22
2023-05-06T12:14:06.312Z,22.2
2023-05-06T12:15:06.536Z,22.3
2023-05-06T12:16:06.907Z,22.5
2023-05-06T12:17:05.987Z,22.6
2023-05-06T12:18:06.367Z,22.6
2023-05-06T12:19:06.721Z,22.7
2023-05-06T12:20:07.231Z,22.8
2023-05-06T12:21:06.310Z,22.8
2023-05-06T12:22:06.442Z,20
2023-05-06T12:23:06.678Z,22.8
2023-05-06T12:24:07.070Z,22.8
2023-05-06T12:25:06.311Z,22.8
2023-05-06T12:26:06.720Z,22.8
2023-05-06T12:27:06.850Z,22.8
2023-05-06T12:28:05.740Z,22.9
2023-05-06T12:29:06.515Z,23
2023-05-06T12:30:06.661Z,20
2023-05-06T12:31:06.725Z,23
2023-05-06T12:32:07.258Z,23.1
2023-05-06T12:33:06.207Z,23.1
2023-05-06T12:34:06.691Z,23.2
2023-05-06T12:35:06.699Z,23.2
2023-05-06T12:36:06.091Z,23.2
2023-05-06T12:37:06.113Z,23.2
2023-05-06T12:38:07.098Z,23.2
2023-05-06T12:39:06.082Z,23.3
2023-05-06T12:40:06.464Z,23.4
2023-05-06T12:41:06.950Z,23.4
2023-05-06T12:42:06.111Z,23.4
2023-05-06T12:43:06.312Z,23.4
2023-05-06T12:44:06.858Z,23.4
2023-05-06T12:45:06.970Z,23.5
2023-05-06T12:46:06.393Z,23.5
2023-05-06T12:50:06.131Z,23.5
2023-05-06T12:51:06.555Z,23.4
2023-05-06T12:52:06.655Z,23.4
2023-05-06T12:53:06.169Z,23.4
2023-05-06T12:54:06.408Z,23.3
2023-05-06T12:55:07.057Z,23.2
2023-05-06T12:56:06.279Z,23.2
2023-05-06T12:57:06.464Z,23.2
2023-05-06T12:58:06.707Z,23.2
2023-05-06T12:59:06.790Z,23.2
2023-05-06T13:02:06.782Z,23.6
2023-05-06T13:03:07.024Z,23.6
2023-05-06T13:04:06.211Z,23.7
2023-05-06T13:05:06.414Z,23.8
2023-05-06T13:06:06.559Z,23.8
2023-05-06T13:07:06.837Z,23.8
2023-05-06T13:08:07.062Z,23.8
2023-05-06T13:09:06.570Z,23.9
2023-05-06T13:10:06.610Z,24
2023-05-06T13:11:06.212Z,24
2023-05-06T13:12:06.598Z,24
2023-05-06T13:15:06.274Z,24
2023-05-06T13:16:06.609Z,24
2023-05-06T13:17:07.338Z,23.7
2023-05-06T13:18:06.322Z,23.6
2023-05-06T13:19:06.674Z,23.4
2023-05-06T13:20:09.721Z,23.3
2023-05-06T13:21:06.104Z,23.3
2023-05-06T13:22:06.491Z,23.2
2023-05-06T13:23:06.719Z,23.2
2023-05-06T13:24:06.795Z,23.3
2023-05-06T13:25:06.346Z,23.2
2023-05-06T13:26:07.963Z,23.3
2023-05-06T13:28:05.972Z,23.3
2023-05-06T13:29:06.206Z,23.3
2023-05-06T13:30:06.723Z,23.3
2023-05-06T13:31:07.100Z,23.2
2023-05-06T13:32:09.276Z,23.2
2023-05-06T13:34:06.723Z,22.8
2023-05-06T13:35:07.054Z,22.7
2023-05-06T13:36:07.663Z,22.6
2023-05-06T13:38:06.182Z,22.2
2023-05-06T13:39:06.442Z,22.2
2023-05-06T13:40:06.760Z,22.2
2023-05-06T13:42:08.616Z,22.1
2023-05-06T13:44:06.572Z,22.1
2023-05-06T13:45:06.935Z,22.1
2023-05-06T13:46:06.111Z,22.2
2023-05-06T13:47:06.440Z,22.2
2023-05-06T13:48:06.656Z,22.3
2023-05-06T13:49:06.818Z,22.4
2023-05-06T13:50:06.375Z,22.4
2023-05-06T13:51:06.507Z,22.3
2023-05-06T13:52:09.965Z,22.4
2023-05-06T13:54:06.170Z,22.4
2023-05-06T13:55:06.539Z,22.5
2023-05-06T13:56:06.760Z,22.5
2023-05-06T13:57:06.184Z,22.6
2023-05-06T13:58:06.540Z,22.6
2023-05-06T13:59:06.672Z,22.6
2023-05-06T14:00:07.455Z,22.6
2023-05-06T14:01:07.017Z,22.5
2023-05-06T14:02:09.735Z,22.6
2023-05-06T14:04:06.909Z,22.4
2023-05-06T14:05:06.158Z,22.4
2023-05-06T14:06:06.297Z,22.3
2023-05-06T14:07:06.126Z,22.4
2023-05-06T14:08:06.782Z,22.3
2023-05-06T14:09:07.044Z,22.4
2023-05-06T14:10:07.096Z,22.4
2023-05-06T14:11:06.502Z,22.4
2023-05-06T14:12:06.354Z,22.3
2023-05-06T14:13:11.297Z,22.3
2023-05-06T14:15:06.422Z,22.2
2023-05-06T14:16:07.152Z,22.2
2023-05-06T14:17:06.195Z,22.1
2023-05-06T14:18:06.739Z,22
2023-05-06T14:19:06.396Z,22
2023-05-06T14:20:07.016Z,21.9
2023-05-06T14:21:06.081Z,21.8
2023-05-06T14:22:06.695Z,21.9
2023-05-06T14:23:06.861Z,22
2023-05-06T14:24:09.012Z,22
2023-05-06T14:26:06.661Z,22
2023-05-06T14:27:07.255Z,22.1
2023-05-06T14:28:06.311Z,22
2023-05-06T14:29:06.358Z,21
2023-05-06T14:30:09.921Z,22
2023-05-06T14:31:06.634Z,21.8
2023-05-06T14:32:07.087Z,21
2023-05-06T14:33:06.005Z,21.6
2023-05-06T14:34:06.296Z,21.6
2023-05-06T14:35:06.713Z,21.5
2023-05-06T14:36:07.022Z,21.3
2023-05-06T14:37:06.381Z,21.2
2023-05-06T14:38:06.334Z,21.2
2023-05-06T14:39:06.707Z,19
2023-05-06T14:40:06.788Z,21.2
2023-05-06T14:41:06.284Z,21.1
2023-05-06T14:42:06.498Z,21
2023-05-06T14:43:06.527Z,21
2023-05-06T14:44:06.840Z,21
2023-05-06T14:45:06.274Z,20.9
2023-05-06T14:46:06.437Z,20.8
2023-05-06T14:47:06.708Z,20.8
2023-05-06T14:48:06.994Z,20.8
2023-05-06T14:49:06.822Z,20.8
2023-05-06T14:51:06.197Z,20.9
2023-05-06T14:52:06.664Z,21
2023-05-06T14:53:08.372Z,21.1
2023-05-06T14:55:06.386Z,21.2
2023-05-06T14:56:06.807Z,21.4
2023-05-06T14:57:06.960Z,21
2023-05-06T14:58:06.083Z,21.4
2023-05-06T14:59:08.466Z,22
2023-05-06T15:00:06.769Z,21.3
2023-05-06T15:01:07.190Z,21.2
2023-05-06T15:02:06.187Z,21.2
2023-05-06T15:03:06.679Z,21.2
2023-05-06T15:04:06.728Z,21.2
2023-05-06T15:05:08.938Z,21.2
2023-05-06T15:07:06.482Z,21.2
2023-05-06T15:08:06.523Z,21.4
2023-05-06T15:09:06.888Z,21.5
2023-05-06T15:10:06.010Z,21.5
2023-05-06T15:11:05.709Z,21.5
2023-05-06T15:12:06.254Z,21.6
2023-05-06T15:13:06.574Z,23
2023-05-06T15:14:05.550Z,21.6